Time;durP1;ratioP1;P1;durP2;ratioP2;P2;SDS_P1;SDS_P2;PMS_P1;PMS_P2;Temp;Humidity;BMP_temperature;BMP_pressure;BME280_temperature;BME280_humidity;BME280_pressure;Samples;Min_cycle;Max_cycle;Signal;HPM_P1;HPM_P2
2023/01/25 00:01:19;;;;;;;;;56.00;43.25;;;;;4.79;69.67;103165.66;5098079;27;48687;-57
2023/01/25 00:03:45;;;;;;;;;61.25;43.75;;;;;4.75;69.92;103160.47;5098146;27;45418;-55
2023/01/25 00:06:10;;;;;;;;;52.75;42.75;;;;;4.73;69.67;103153.53;5097613;27;46167;-58
2023/01/25 00:08:37;;;;;;;;;48.25;40.75;;;;;4.77;69.57;103162.22;5097881;27;46542;-59
2023/01/25 00:11:02;;;;;;;;;52.75;42.00;;;;;4.73;68.92;103164.09;5097826;27;45315;-49
2023/01/25 00:13:28;;;;;;;;;39.50;25.50;;;;;4.71;69.84;103164.13;5098240;27;45273;-59
2023/01/25 00:16:00;;;;;;;;;54.00;43.75;;;;;4.68;69.56;103160.75;5078966;27;46259;-58
2023/01/25 00:18:25;;;;;;;;;66.50;46.50;;;;;4.70;69.28;103153.63;5077359;28;45406;-58
2023/01/25 00:20:50;;;;;;;;;54.00;41.75;;;;;4.70;69.87;103154.50;5077591;28;45325;-57
2023/01/25 00:23:16;;;;;;;;;69.75;48.00;;;;;4.72;69.39;103159.72;5077530;28;45438;-55
2023/01/25 00:25:41;;;;;;;;;58.25;44.75;;;;;4.72;69.91;103154.47;5077177;28;45396;-55
2023/01/25 00:28:06;;;;;;;;;65.25;47.00;;;;;4.66;69.69;103144.94;5077280;28;45368;-60
2023/01/25 00:30:32;;;;;;;;;65.00;42.75;;;;;4.71;70.17;103144.81;5077458;28;45428;-57
2023/01/25 00:33:25;;;;;;;;;49.00;40.25;;;;;4.61;69.32;103131.06;5077529;28;45320;-57
2023/01/25 00:35:50;;;;;;;;;84.25;62.25;;;;;4.72;69.46;103144.78;5076983;28;45445;-58
2023/01/25 00:38:32;;;;;;;;;70.00;50.75;;;;;4.70;69.56;103146.56;5076862;28;45415;-58
2023/01/25 00:40:57;;;;;;;;;51.00;42.75;;;;;4.72;69.65;103149.19;5077144;28;45420;-55
2023/01/25 00:43:23;;;;;;;;;53.00;37.50;;;;;4.71;69.48;103152.72;5077347;28;45366;-58
2023/01/25 00:45:48;;;;;;;;;49.25;37.00;;;;;4.70;69.41;103146.56;5075761;27;45983;-58
2023/01/25 00:48:13;;;;;;;;;60.50;40.00;;;;;4.73;69.76;103153.53;5096885;27;45391;-59
2023/01/25 00:50:39;;;;;;;;;51.00;36.50;;;;;4.73;69.92;103145.63;5097654;27;45359;-59
2023/01/25 00:53:04;;;;;;;;;59.25;43.00;;;;;4.73;69.99;103141.22;5097479;27;45312;-56
2023/01/25 00:55:29;;;;;;;;;47.25;40.75;;;;;4.72;70.21;103136.88;5097231;27;45996;-58
2023/01/25 00:57:55;;;;;;;;;47.50;38.75;;;;;4.73;70.30;103138.56;5097159;27;45438;-58
2023/01/25 01:00:20;;;;;;;;;45.75;38.00;;;;;4.72;69.44;103134.22;5096965;27;45479;-59
2023/01/25 01:02:45;;;;;;;;;63.25;42.25;;;;;4.73;70.24;103133.31;5089773;27;46072;-58
2023/01/25 01:05:11;;;;;;;;;52.00;36.50;;;;;4.75;69.75;103142.00;5096351;27;45511;-56
2023/01/25 01:07:37;;;;;;;;;52.00;38.00;;;;;4.74;69.46;103140.28;5097305;27;45400;-56
2023/01/25 01:10:03;;;;;;;;;55.00;44.50;;;;;4.74;69.53;103139.44;5097282;27;45235;-59
2023/01/25 01:12:28;;;;;;;;;58.00;45.00;;;;;4.74;70.23;103140.28;5097006;27;46180;-57
2023/01/25 01:14:53;;;;;;;;;53.75;39.25;;;;;4.74;69.60;103137.66;5096813;27;46213;-59
2023/01/25 01:17:19;;;;;;;;;59.00;43.25;;;;;4.75;69.52;103131.47;5096864;27;45400;-58
2023/01/25 01:19:44;;;;;;;;;48.75;40.50;;;;;4.73;69.82;103122.75;5089352;27;46766;-58
2023/01/25 01:22:12;;;;;;;;;63.75;42.25;;;;;4.73;69.22;103127.16;5097233;27;45552;-61
2023/01/25 01:24:37;;;;;;;;;56.75;43.25;;;;;4.74;69.94;103134.16;5096154;27;50752;-47
2023/01/25 01:27:03;;;;;;;;;69.50;44.75;;;;;4.74;69.86;103137.66;5096598;27;45471;-50
2023/01/25 01:29:28;;;;;;;;;69.25;44.50;;;;;4.72;70.40;103138.63;5096808;27;45422;-45
2023/01/25 01:31:54;;;;;;;;;53.00;43.75;;;;;4.72;70.08;103133.38;5078662;27;45366;-57
2023/01/25 01:34:20;;;;;;;;;64.25;42.50;;;;;4.70;70.15;103136.03;5096337;27;46093;-55
2023/01/25 01:36:45;;;;;;;;;65.50;43.25;;;;;4.68;69.95;103135.22;5089274;27;45384;-46
2023/01/25 01:39:10;;;;;;;;;55.50;44.50;;;;;4.60;69.23;103118.81;5096578;27;45350;-48
2023/01/25 01:41:36;;;;;;;;;54.00;43.25;;;;;4.68;69.43;103137.00;5096826;27;45794;-46
2023/01/25 01:44:03;;;;;;;;;58.00;42.50;;;;;4.67;69.42;103136.13;5096166;27;47152;-55
2023/01/25 01:46:36;;;;;;;;;65.00;43.25;;;;;4.68;70.09;103139.66;5096525;27;45520;-56
2023/01/25 01:49:15;;;;;;;;;53.50;42.25;;;;;4.67;70.24;103137.91;5095551;27;45741;-51
2023/01/25 01:51:55;;;;;;;;;58.25;40.50;;;;;4.66;70.36;103142.31;5096798;27;45316;-43
2023/01/25 01:54:24;;;;;;;;;57.25;38.75;;;;;4.24;69.52;103074.25;5088546;27;45763;-57
2023/01/25 01:57:08;;;;;;;;;61.25;42.75;;;;;4.64;70.01;103146.78;5096168;27;45349;-46
2023/01/25 01:59:41;;;;;;;;;57.25;43.00;;;;;4.65;70.16;103142.38;5096526;27;45210;-45
2023/01/25 02:02:07;;;;;;;;;60.50;46.50;;;;;4.62;70.31;103145.97;5096637;27;45415;-55
2023/01/25 02:04:33;;;;;;;;;59.00;42.00;;;;;4.60;69.94;103145.16;5096101;27;45536;-52
2023/01/25 02:07:15;;;;;;;;;60.00;42.50;;;;;4.58;70.30;103143.47;5096257;27;45619;-56
2023/01/25 02:09:42;;;;;;;;;45.00;35.25;;;;;4.56;70.07;103148.81;5096287;27;45434;-45
2023/01/25 02:12:09;;;;;;;;;57.00;42.75;;;;;4.56;69.54;103155.84;5096437;27;45457;-45
2023/01/25 02:14:39;;;;;;;;;60.50;42.50;;;;;4.55;70.20;103152.38;5095982;27;45578;-56
2023/01/25 02:17:05;;;;;;;;;71.00;44.50;;;;;4.55;70.10;103148.84;5093627;27;45344;-51
2023/01/25 02:19:49;;;;;;;;;59.25;48.00;;;;;4.51;70.69;103148.09;5090947;27;45475;-47
2023/01/25 02:22:19;;;;;;;;;53.25;43.00;;;;;4.58;70.03;103154.88;5096396;27;45414;-52
2023/01/25 02:24:52;;;;;;;;;64.25;41.00;;;;;4.59;69.90;103159.22;5095662;27;46345;-49
2023/01/25 02:27:18;;;;;;;;;61.75;44.75;;;;;4.61;69.81;103148.66;5095894;27;45356;-50
2023/01/25 02:29:44;;;;;;;;;65.25;45.25;;;;;4.63;70.26;103160.00;5095310;27;45470;-53
2023/01/25 02:32:09;;;;;;;;;66.25;45.50;;;;;4.60;70.37;103145.16;5096301;27;45297;-51
2023/01/25 02:34:35;;;;;;;;;56.50;42.75;;;;;4.60;70.13;103152.22;5086866;27;51460;-44
2023/01/25 02:37:00;;;;;;;;;54.00;40.25;;;;;4.59;70.82;103158.38;5095819;27;45335;-51
2023/01/25 02:39:27;;;;;;;;;65.00;46.75;;;;;4.59;70.61;103155.75;5077640;27;45514;-58
2023/01/25 02:41:52;;;;;;;;;65.00;45.00;;;;;4.56;70.12;103155.84;5095891;27;45408;-60
2023/01/25 02:44:25;;;;;;;;;53.50;39.75;;;;;4.56;70.49;103151.44;5094866;27;45490;-58
2023/01/25 02:46:51;;;;;;;;;48.50;39.50;;;;;4.58;70.54;103157.50;5077368;27;45512;-52
2023/01/25 02:49:17;;;;;;;;;45.00;34.50;;;;;4.57;69.96;103155.81;5096480;27;45756;-56
2023/01/25 02:51:47;;;;;;;;;49.75;41.25;;;;;4.54;70.47;103155.88;5088426;27;45465;-55
2023/01/25 02:54:15;;;;;;;;;66.75;40.75;;;;;4.55;70.95;103148.84;5096326;27;47076;-53
2023/01/25 02:56:40;;;;;;;;;58.25;39.25;;;;;4.58;70.76;103156.66;5097189;27;45439;-50
2023/01/25 02:59:07;;;;;;;;;55.50;34.50;;;;;4.56;70.69;103148.81;5096554;27;45735;-49
2023/01/25 03:01:33;;;;;;;;;58.25;42.75;;;;;4.56;70.35;103143.53;5097337;27;45419;-57
2023/01/25 03:03:59;;;;;;;;;69.00;44.75;;;;;4.48;70.60;103129.75;5097411;27;45485;-48
2023/01/25 03:06:24;;;;;;;;;66.00;43.25;;;;;4.54;71.25;103147.97;5096776;27;45402;-45
2023/01/25 03:08:50;;;;;;;;;56.50;45.25;;;;;4.55;70.34;103147.09;5076254;27;45401;-47
2023/01/25 03:11:15;;;;;;;;;54.00;37.50;;;;;4.50;70.18;103134.03;5089034;27;45467;-53
2023/01/25 03:13:40;;;;;;;;;64.50;45.00;;;;;4.54;71.17;103134.81;5095144;27;46036;-53
2023/01/25 03:16:08;;;;;;;;;63.50;47.25;;;;;4.54;71.28;103139.22;5095408;27;45411;-49
2023/01/25 03:18:35;;;;;;;;;50.75;40.25;;;;;4.51;71.13;103134.91;5095466;27;45229;-56
2023/01/25 03:21:15;;;;;;;;;61.50;42.00;;;;;4.52;71.02;103144.53;5095650;27;45353;-58
2023/01/25 03:23:41;;;;;;;;;57.75;39.00;;;;;4.50;70.99;103143.72;5095693;27;47524;-55
2023/01/25 03:26:13;;;;;;;;;51.00;41.25;;;;;4.50;71.68;103143.72;5089676;27;45498;-45
2023/01/25 03:28:40;;;;;;;;;48.25;38.75;;;;;4.50;71.30;103152.47;5095486;27;45467;-48
2023/01/25 03:31:06;;;;;;;;;60.00;41.00;;;;;4.49;71.34;103148.13;5098966;27;45337;-59
2023/01/25 03:33:32;;;;;;;;;57.75;43.75;;;;;4.49;71.09;103148.13;5080175;27;46175;-55
2023/01/25 03:35:57;;;;;;;;;65.75;45.75;;;;;4.49;71.69;103144.63;5098223;27;50077;-52
2023/01/25 03:38:23;;;;;;;;;56.00;40.75;;;;;4.36;71.46;103124.84;5097678;27;45377;-59
2023/01/25 03:40:49;;;;;;;;;55.75;43.50;;;;;4.47;72.25;103142.06;5098846;27;45418;-48
2023/01/25 03:43:14;;;;;;;;;41.00;30.50;;;;;4.47;71.37;103146.47;5073158;28;47966;-61
2023/01/25 03:45:40;;;;;;;;;58.75;42.75;;;;;4.46;72.29;103134.19;5097683;27;45426;-58
2023/01/25 03:48:06;;;;;;;;;49.50;43.50;;;;;4.45;71.87;103137.72;5098781;27;45505;-50
2023/01/25 03:50:31;;;;;;;;;65.75;44.25;;;;;4.35;72.68;103124.00;5098537;27;45501;-58
2023/01/25 03:53:01;;;;;;;;;66.00;39.75;;;;;4.45;72.48;103135.09;5098470;27;46112;-58
2023/01/25 03:55:27;;;;;;;;;59.75;45.00;;;;;4.41;72.83;103139.59;5098092;27;45370;-58
2023/01/25 03:57:52;;;;;;;;;59.25;42.75;;;;;4.31;72.94;103122.38;5098409;27;45395;-57
2023/01/25 04:00:18;;;;;;;;;67.50;48.00;;;;;4.37;73.16;103130.06;5090737;27;45834;-45
2023/01/25 04:02:45;;;;;;;;;71.00;49.00;;;;;4.41;72.71;103133.47;5098155;27;46248;-52
2023/01/25 04:05:10;;;;;;;;;63.75;44.25;;;;;4.39;73.42;103128.25;5098613;27;45372;-54
2023/01/25 04:07:36;;;;;;;;;54.25;40.00;;;;;4.37;73.46;103121.28;5097675;27;45272;-57
2023/01/25 04:10:02;;;;;;;;;62.25;42.00;;;;;4.37;72.61;103134.47;5098506;27;45411;-54
2023/01/25 04:12:28;;;;;;;;;47.00;42.50;;;;;4.36;72.95;103136.25;5097913;27;46262;-58
2023/01/25 04:14:53;;;;;;;;;49.75;42.25;;;;;4.34;73.62;103126.66;5096701;27;45490;-50
2023/01/25 04:17:18;;;;;;;;;66.25;44.75;;;;;4.19;73.59;103112.19;5091658;27;45312;-54
2023/01/25 04:19:44;;;;;;;;;59.75;43.00;;;;;4.31;73.36;103134.69;5098063;27;45503;-53
2023/01/25 04:22:09;;;;;;;;;65.25;44.50;;;;;4.20;73.09;103125.31;5097778;27;45548;-54
2023/01/25 04:24:34;;;;;;;;;56.25;40.00;;;;;4.24;73.05;103134.84;5079458;27;45737;-56
2023/01/25 04:27:00;;;;;;;;;62.00;42.50;;;;;4.23;73.98;103141.03;5097952;27;45456;-55
2023/01/25 04:29:25;;;;;;;;;67.50;42.25;;;;;4.21;72.94;103131.44;5097827;27;45338;-58
2023/01/25 04:31:50;;;;;;;;;49.75;39.00;;;;;4.18;74.25;103135.06;5094015;27;48402;-45
2023/01/25 04:34:15;;;;;;;;;63.00;40.75;;;;;4.11;73.53;103125.59;5092259;27;45442;-58
2023/01/25 04:36:41;;;;;;;;;45.25;42.00;;;;;4.09;72.81;103126.53;5097870;27;45502;-58
2023/01/25 04:39:06;;;;;;;;;59.25;45.25;;;;;4.13;73.38;103133.44;5097926;27;45351;-59
2023/01/25 04:41:31;;;;;;;;;62.25;42.25;;;;;4.12;73.94;103124.69;5096397;27;45485;-55
2023/01/25 04:43:57;;;;;;;;;65.50;46.25;;;;;4.13;73.79;103129.06;5097538;27;45371;-55
2023/01/25 04:46:22;;;;;;;;;54.50;40.50;;;;;4.13;74.13;103129.06;5097353;27;45377;-58
2023/01/25 04:48:47;;;;;;;;;63.00;37.75;;;;;4.14;73.89;103125.53;5097511;27;47424;-55
2023/01/25 04:51:13;;;;;;;;;56.75;40.50;;;;;4.15;73.99;103127.25;5088881;27;50178;-51
2023/01/25 04:53:39;;;;;;;;;8.25;8.25;;;;;4.14;73.82;103125.53;5097569;27;45288;-49
2023/01/25 04:56:05;;;;;;;;;62.00;40.50;;;;;4.14;74.03;103125.53;5097458;27;45221;-59
2023/01/25 04:58:30;;;;;;;;;46.75;35.00;;;;;4.14;74.78;103122.03;5097282;27;45222;-53
2023/01/25 05:01:01;;;;;;;;;42.50;36.50;;;;;4.18;74.81;103121.03;5093470;27;46147;-53
2023/01/25 05:03:27;;;;;;;;;43.50;25.75;;;;;4.22;74.79;103118.25;5097090;27;45258;-45
2023/01/25 05:05:52;;;;;;;;;46.00;37.00;;;;;4.22;73.39;103118.25;5097364;27;45386;-55
2023/01/25 05:08:17;;;;;;;;;45.00;36.25;;;;;4.22;73.59;103120.88;5097491;27;45705;-58
2023/01/25 05:10:43;;;;;;;;;52.00;36.25;;;;;4.24;74.78;103116.41;5097135;27;46123;-48
2023/01/25 05:13:09;;;;;;;;;51.00;38.50;;;;;4.27;74.60;103119.88;5097038;27;45437;-50
2023/01/25 05:15:34;;;;;;;;;47.25;34.75;;;;;4.27;74.83;103118.09;5096928;27;45397;-51
2023/01/25 05:17:59;;;;;;;;;64.00;44.75;;;;;4.28;74.46;103116.31;5097378;27;45445;-58
2023/01/25 05:20:25;;;;;;;;;34.00;24.75;;;;;4.26;73.37;103113.75;5096634;27;46145;-57
2023/01/25 05:22:50;;;;;;;;;58.75;36.25;;;;;4.24;73.47;103113.78;5096844;27;45273;-55
2023/01/25 05:28:03;;;;;;;;;43.75;33.25;;;;;4.18;73.69;103100.81;5097196;27;45300;-51
2023/01/25 05:30:29;;;;;;;;;50.75;35.00;;;;;4.22;73.80;103106.84;5096751;27;46321;-58
2023/01/25 05:32:54;;;;;;;;;34.75;28.50;;;;;4.19;73.47;103107.78;5095508;27;45303;-55
2023/01/25 05:35:19;;;;;;;;;56.00;39.50;;;;;4.17;73.65;103103.47;5078354;27;45379;-58
2023/01/25 05:37:44;;;;;;;;;44.00;35.25;;;;;4.15;73.88;103106.16;5096617;27;45383;-53
2023/01/25 05:40:10;;;;;;;;;47.75;32.00;;;;;4.16;74.33;103101.75;5096865;27;45383;-53
2023/01/25 05:42:36;;;;;;;;;56.75;38.00;;;;;4.17;74.16;103107.00;5096532;27;45444;-48
2023/01/25 05:45:01;;;;;;;;;44.75;32.25;;;;;4.17;74.62;103109.63;5096776;27;45276;-46
2023/01/25 05:47:26;;;;;;;;;41.00;30.75;;;;;4.17;74.15;103104.34;5096800;27;45475;-54
2023/01/25 05:49:52;;;;;;;;;48.00;38.00;;;;;4.19;74.62;103112.19;5078005;27;46259;-47
2023/01/25 05:52:17;;;;;;;;;40.00;32.00;;;;;4.20;74.30;103106.00;5096005;27;45479;-56
2023/01/25 05:54:43;;;;;;;;;40.00;32.25;;;;;4.20;74.11;103106.88;5096294;27;45405;-47
2023/01/25 05:57:09;;;;;;;;;47.50;34.00;;;;;4.21;74.02;103107.72;5096721;27;45289;-53
2023/01/25 05:59:34;;;;;;;;;49.25;32.75;;;;;4.20;74.34;103111.28;5096193;27;46250;-52
2023/01/25 06:02:00;;;;;;;;;43.75;29.50;;;;;4.19;73.89;103104.31;5096318;27;45363;-57
2023/01/25 06:04:25;;;;;;;;;33.75;25.25;;;;;4.17;73.15;103104.34;5096673;27;45343;-55
2023/01/25 06:06:50;;;;;;;;;35.75;31.50;;;;;4.13;73.52;103097.47;5096540;27;45454;-57
2023/01/25 06:09:16;;;;;;;;;42.00;22.75;;;;;4.15;73.66;103098.25;5096402;27;49401;-58
2023/01/25 06:11:44;;;;;;;;;29.25;20.25;;;;;4.14;72.48;103107.06;5096282;27;45451;-51
2023/01/25 06:14:10;;;;;;;;;23.50;20.50;;;;;4.12;73.39;103098.34;5096244;27;45479;-51
2023/01/25 06:16:35;;;;;;;;;30.25;27.25;;;;;4.10;72.46;103101.97;5096533;27;45352;-58
2023/01/25 06:19:00;;;;;;;;;28.50;25.50;;;;;4.09;72.97;103105.47;5096016;27;45425;-56
2023/01/25 06:21:26;;;;;;;;;25.75;9.50;;;;;4.09;72.51;103103.72;5096318;27;45336;-58
2023/01/25 06:23:51;;;;;;;;;30.00;16.75;;;;;3.99;72.63;103089.97;5096076;27;45330;-54
2023/01/25 06:26:16;;;;;;;;;20.75;16.25;;;;;3.98;72.22;103098.78;5096578;27;45416;-58
2023/01/25 06:28:42;;;;;;;;;29.25;22.00;;;;;3.97;72.15;103099.69;5095983;27;47130;-52
2023/01/25 06:31:10;;;;;;;;;23.00;20.00;;;;;3.95;72.25;103105.91;5095809;27;45464;-57
2023/01/25 06:33:36;;;;;;;;;12.50;10.50;;;;;3.95;72.75;103100.63;5096113;27;45239;-54
2023/01/25 06:36:08;;;;;;;;;24.25;17.25;;;;;3.93;72.73;103098.06;5095963;27;45518;-55
2023/01/25 06:38:33;;;;;;;;;20.50;17.00;;;;;3.94;72.78;103093.66;5095613;27;47507;-56
2023/01/25 06:41:04;;;;;;;;;24.50;19.00;;;;;3.91;72.71;103105.13;5095749;27;46332;-59
2023/01/25 06:43:31;;;;;;;;;19.50;16.25;;;;;3.90;72.17;103097.28;5095962;27;45436;-52
2023/01/25 06:46:01;;;;;;;;;24.25;18.50;;;;;3.83;72.07;103096.59;5095923;27;45492;-56
2023/01/25 06:48:28;;;;;;;;;24.25;20.00;;;;;3.82;71.81;103099.28;5095642;27;47209;-58
2023/01/25 06:50:55;;;;;;;;;23.50;20.25;;;;;3.84;73.14;103095.72;5095829;27;45697;-48
2023/01/25 06:53:20;;;;;;;;;25.50;19.75;;;;;3.86;73.41;103087.75;5094610;27;45379;-57
2023/01/25 06:55:45;;;;;;;;;38.25;27.75;;;;;3.88;73.36;103092.06;5095870;27;45399;-54
2023/01/25 06:58:11;;;;;;;;;32.75;22.75;;;;;3.88;73.02;103088.59;5095739;27;46208;-56
2023/01/25 07:00:36;;;;;;;;;25.25;20.00;;;;;3.89;72.24;103095.56;5095283;27;47774;-57
2023/01/25 07:03:01;;;;;;;;;33.25;20.75;;;;;3.86;71.73;103080.72;5095676;27;45757;-56
2023/01/25 07:05:27;;;;;;;;;27.75;21.75;;;;;3.83;71.88;103082.56;5099425;27;45282;-58
2023/01/25 07:07:52;;;;;;;;;16.00;16.00;;;;;3.79;72.11;103086.19;5099333;27;46735;-54
2023/01/25 07:10:17;;;;;;;;;24.00;17.00;;;;;3.78;73.12;103087.13;5098873;27;48011;-55
2023/01/25 07:12:42;;;;;;;;;29.25;28.25;;;;;3.78;72.74;103085.34;5099321;27;45419;-53
2023/01/25 07:15:08;;;;;;;;;32.25;21.75;;;;;3.77;72.54;103083.63;5098947;27;45406;-58
2023/01/25 07:17:33;;;;;;;;;22.25;13.75;;;;;3.80;73.07;103083.53;5098951;27;45241;-53
2023/01/25 07:19:59;;;;;;;;;32.25;20.25;;;;;3.81;73.00;103090.53;5099108;27;45418;-60
2023/01/25 07:22:24;;;;;;;;;31.75;20.75;;;;;3.80;73.27;103085.31;5098977;27;45306;-59
2023/01/25 07:24:51;;;;;;;;;31.00;22.50;;;;;3.78;73.03;103085.34;5098175;27;45476;-56
2023/01/25 07:27:16;;;;;;;;;25.25;16.00;;;;;3.82;72.85;103083.47;5098806;27;46491;-58
2023/01/25 07:29:42;;;;;;;;;27.25;17.00;;;;;3.80;72.91;103094.06;5080532;27;45455;-59
2023/01/25 07:32:07;;;;;;;;;30.00;23.25;;;;;3.82;72.74;103088.75;5099014;27;45441;-58
2023/01/25 07:34:33;;;;;;;;;28.75;19.50;;;;;3.81;72.61;103089.66;5099231;27;45443;-59
2023/01/25 07:36:59;;;;;;;;;23.50;18.75;;;;;3.75;72.28;103077.56;5098763;27;45900;-53
2023/01/25 07:39:24;;;;;;;;;31.25;21.75;;;;;3.83;72.54;103082.56;5098687;27;45372;-56
2023/01/25 07:41:49;;;;;;;;;33.25;25.75;;;;;3.81;72.94;103082.63;5099009;27;45414;-59
2023/01/25 07:44:15;;;;;;;;;32.00;23.25;;;;;3.82;72.07;103089.59;5098847;27;45608;-53
2023/01/25 07:46:40;;;;;;;;;34.75;23.25;;;;;3.83;73.03;103082.56;5098676;27;45497;-58
2023/01/25 07:49:05;;;;;;;;;21.50;17.50;;;;;3.83;73.12;103085.19;5098631;27;45518;-56
2023/01/25 07:51:31;;;;;;;;;14.25;8.25;;;;;3.82;72.50;103086.13;5080390;27;45745;-50
2023/01/25 07:53:59;;;;;;;;;36.00;25.50;;;;;3.80;72.91;103074.78;5098022;27;45534;-56
2023/01/25 07:56:33;;;;;;;;;29.75;23.25;;;;;3.79;73.20;103075.66;5097664;27;46183;-54
2023/01/25 07:59:01;;;;;;;;;25.25;19.25;;;;;3.80;72.62;103078.28;5098497;27;45255;-59
2023/01/25 08:01:29;;;;;;;;;32.00;22.00;;;;;3.83;73.43;103088.69;5098342;27;45381;-55
2023/01/25 08:03:56;;;;;;;;;26.75;21.25;;;;;3.86;72.21;103085.13;5098826;27;45304;-50
2023/01/25 08:06:30;;;;;;;;;29.25;21.25;;;;;3.87;72.49;103081.56;5098500;27;46143;-59
2023/01/25 08:08:56;;;;;;;;;26.00;20.00;;;;;3.86;73.29;103077.22;5098262;27;45416;-56
2023/01/25 08:11:27;;;;;;;;;18.25;16.25;;;;;3.88;71.77;103076.28;5098439;27;45467;-50
2023/01/25 08:13:53;;;;;;;;;21.75;19.75;;;;;3.92;72.70;103084.94;5098430;27;45295;-49
2023/01/25 08:16:22;;;;;;;;;29.00;20.00;;;;;3.90;72.68;103092.88;5097876;27;45849;-57
2023/01/25 08:18:53;;;;;;;;;28.50;20.00;;;;;3.91;71.97;103080.56;5098171;27;45362;-56
2023/01/25 08:21:19;;;;;;;;;36.00;25.00;;;;;3.89;71.55;103078.00;5098082;27;45460;-57
2023/01/25 08:23:45;;;;;;;;;29.00;23.50;;;;;3.82;72.33;103063.28;5098279;27;45454;-44
2023/01/25 08:26:12;;;;;;;;;26.50;19.25;;;;;3.91;71.59;103080.56;5097982;27;46859;-57
2023/01/25 08:28:37;;;;;;;;;32.25;21.00;;;;;3.91;72.38;103081.44;5097897;27;45365;-57
2023/01/25 08:31:24;;;;;;;;;16.50;16.50;;;;;3.93;71.26;103084.03;5096944;27;45389;-55
2023/01/25 08:33:52;;;;;;;;;32.00;25.50;;;;;3.92;71.82;103075.28;5098195;27;45490;-54
2023/01/25 08:36:18;;;;;;;;;25.00;19.00;;;;;3.93;71.29;103070.88;5097681;27;46214;-58
2023/01/25 08:38:45;;;;;;;;;24.00;16.75;;;;;3.92;72.06;103082.31;5096861;27;45387;-47
2023/01/25 08:41:17;;;;;;;;;28.50;19.75;;;;;3.91;72.29;103083.19;5097905;27;45344;-52
2023/01/25 08:43:43;;;;;;;;;19.00;17.25;;;;;3.88;72.09;103081.53;5097990;27;45388;-59
2023/01/25 08:46:09;;;;;;;;;20.25;17.25;;;;;3.84;70.90;103076.41;5097601;27;45408;-54
2023/01/25 08:48:34;;;;;;;;;40.25;29.25;;;;;3.81;71.54;103074.72;5097729;27;45466;-58
2023/01/25 08:51:00;;;;;;;;;31.75;18.00;;;;;3.78;71.87;103068.69;5097823;27;45262;-58
2023/01/25 08:53:27;;;;;;;;;32.50;22.00;;;;;3.75;72.07;103073.16;5097671;27;45385;-60
2023/01/25 08:55:52;;;;;;;;;24.50;20.25;;;;;3.77;71.78;103073.09;5096906;27;46441;-58
2023/01/25 08:58:20;;;;;;;;;34.25;23.75;;;;;3.79;72.05;103070.41;5079164;27;45389;-49
2023/01/25 09:00:46;;;;;;;;;22.50;18.75;;;;;3.80;72.03;103072.16;5097480;27;45338;-54
2023/01/25 09:03:11;;;;;;;;;34.00;22.25;;;;;3.82;72.08;103065.91;5097828;27;45679;-54
2023/01/25 09:05:38;;;;;;;;;33.50;19.25;;;;;3.82;71.73;103065.91;5097450;27;45305;-51
2023/01/25 09:08:06;;;;;;;;;28.25;23.00;;;;;3.81;71.48;103065.97;5097308;27;45458;-55
2023/01/25 09:10:32;;;;;;;;;30.25;18.25;;;;;3.80;71.39;103062.47;5097179;27;45383;-55
2023/01/25 09:12:57;;;;;;;;;26.25;21.75;;;;;3.80;71.80;103059.84;5097293;27;45337;-58
2023/01/25 09:15:23;;;;;;;;;25.50;20.75;;;;;3.72;71.64;103046.03;5096766;27;45382;-57
2023/01/25 09:17:53;;;;;;;;;27.50;22.25;;;;;3.84;71.59;103065.88;5078568;27;45736;-45
2023/01/25 09:20:19;;;;;;;;;30.25;14.00;;;;;3.84;70.89;103063.25;5097371;27;45663;-55
2023/01/25 09:22:46;;;;;;;;;28.75;23.00;;;;;3.84;71.18;103060.63;5097443;27;45355;-53
2023/01/25 09:25:12;;;;;;;;;28.00;17.75;;;;;3.82;71.45;103058.00;5097135;27;46956;-58
2023/01/25 09:27:37;;;;;;;;;30.25;24.00;;;;;3.85;70.69;103070.22;5096368;27;45466;-58
2023/01/25 09:30:04;;;;;;;;;31.50;24.50;;;;;3.84;70.70;103064.09;5096409;27;45367;-55
2023/01/25 09:32:29;;;;;;;;;26.75;19.50;;;;;3.85;70.88;103063.19;5097540;27;45549;-59
2023/01/25 09:34:54;;;;;;;;;29.00;23.25;;;;;3.82;71.45;103062.41;5097627;27;49036;-57
2023/01/25 09:37:20;;;;;;;;;29.75;23.00;;;;;3.81;71.30;103063.34;5098244;27;46974;-53
2023/01/25 09:39:45;;;;;;;;;32.50;24.00;;;;;3.64;70.35;103038.38;5098467;27;45443;-58
2023/01/25 09:42:19;;;;;;;;;24.00;18.00;;;;;3.71;70.50;103047.81;5096103;27;45546;-52
2023/01/25 09:44:51;;;;;;;;;28.50;19.75;;;;;3.69;71.00;103054.03;5096731;27;46280;-55
2023/01/25 09:47:24;;;;;;;;;12.50;10.50;;;;;3.66;70.84;103054.97;5096650;27;45429;-58
2023/01/25 09:50:08;;;;;;;;;30.00;24.50;;;;;3.64;70.76;103062.06;5096946;27;45353;-60
2023/01/25 09:53:11;;;;;;;;;25.00;21.25;;;;;3.63;71.58;103059.50;5097008;27;45470;-57
2023/01/25 09:55:38;;;;;;;;;23.75;16.75;;;;;3.60;70.82;103060.44;5096435;27;46391;-59
2023/01/25 09:58:04;;;;;;;;;27.75;23.25;;;;;3.61;72.19;103059.50;5096722;27;45266;-53
2023/01/25 10:00:35;;;;;;;;;23.75;17.25;;;;;3.63;71.75;103057.72;5096384;27;45448;-56
2023/01/25 10:03:19;;;;;;;;;23.00;20.00;;;;;3.66;71.70;103056.75;5096698;27;45279;-58
2023/01/25 10:05:48;;;;;;;;;30.25;23.25;;;;;3.63;71.63;103057.72;5096241;27;46075;-46
2023/01/25 10:08:59;;;;;;;;;25.00;22.25;;;;;3.64;71.53;103062.06;5096603;27;45361;-56
2023/01/25 10:11:30;;;;;;;;;34.50;27.50;;;;;3.65;71.91;103062.91;5093392;27;45617;-58
2023/01/25 10:13:57;;;;;;;;;35.50;24.75;;;;;3.66;72.31;103070.75;5096463;27;45712;-56
2023/01/25 10:16:29;;;;;;;;;30.50;24.50;;;;;3.67;71.90;103061.13;5095167;27;45461;-54
2023/01/25 10:19:17;;;;;;;;;35.50;23.25;;;;;3.68;71.94;103068.97;5096450;27;45420;-56
2023/01/25 10:21:44;;;;;;;;;25.75;24.75;;;;;3.68;71.76;103071.59;5096450;27;45354;-55
2023/01/25 10:24:20;;;;;;;;;26.75;22.50;;;;;3.68;72.14;103071.59;5096583;27;45353;-56
2023/01/25 10:26:54;;;;;;;;;34.75;25.00;;;;;3.69;71.45;103064.56;5096481;27;45909;-50
2023/01/25 10:29:22;;;;;;;;;36.00;28.25;;;;;3.55;71.49;103037.78;5096202;27;45490;-58
2023/01/25 10:31:52;;;;;;;;;32.75;21.00;;;;;3.70;71.71;103061.88;5096268;27;45439;-53
2023/01/25 10:34:23;;;;;;;;;28.00;22.00;;;;;3.71;71.34;103060.13;5096304;27;45426;-45
2023/01/25 10:37:00;;;;;;;;;31.50;20.25;;;;;3.70;71.23;103059.22;5095538;27;46203;-53
2023/01/25 10:39:26;;;;;;;;;38.00;24.00;;;;;3.53;70.60;103039.59;5098014;27;45480;-58
2023/01/25 10:42:07;;;;;;;;;40.50;27.75;;;;;3.60;70.47;103063.06;5099659;27;45403;-57
2023/01/25 10:44:34;;;;;;;;;27.25;23.00;;;;;3.59;70.68;103061.34;5100178;27;45351;-57
2023/01/25 10:47:02;;;;;;;;;27.00;21.50;;;;;3.54;71.08;103052.72;5099509;27;46083;-58
2023/01/25 10:49:46;;;;;;;;;23.25;20.75;;;;;3.51;71.36;103055.44;5099404;27;45403;-59
2023/01/25 10:52:13;;;;;;;;;39.00;23.75;;;;;3.50;70.54;103058.97;5099734;27;45416;-44
2023/01/25 10:54:38;;;;;;;;;33.75;25.25;;;;;3.48;71.66;103048.47;5099913;27;45304;-51
2023/01/25 10:57:06;;;;;;;;;27.25;23.50;;;;;3.49;71.10;103041.44;5099343;27;48239;-59
2023/01/25 10:59:33;;;;;;;;;34.75;23.00;;;;;3.58;71.42;103045.56;5093158;27;45226;-55
2023/01/25 11:02:36;;;;;;;;;28.75;23.25;;;;;3.61;70.75;103042.88;5078036;28;45410;-58
2023/01/25 11:05:33;;;;;;;;;34.50;24.75;;;;;3.63;71.42;103038.44;5076143;28;45402;-54
2023/01/25 11:08:21;;;;;;;;;33.75;23.50;;;;;3.64;70.47;103040.16;5075413;28;46100;-55
2023/01/25 11:10:46;;;;;;;;;27.75;20.00;;;;;3.62;70.60;103027.00;5049622;28;45427;-51
2023/01/25 11:13:14;;;;;;;;;30.75;22.00;;;;;3.62;70.70;103024.38;5078795;28;45454;-53
2023/01/25 11:15:45;;;;;;;;;39.25;29.00;;;;;3.58;70.53;103024.53;5078947;28;45378;-54
2023/01/25 11:18:19;;;;;;;;;32.50;27.75;;;;;3.54;71.12;103007.97;5078332;28;45706;-57
2023/01/25 11:20:44;;;;;;;;;33.00;21.00;;;;;3.63;70.60;103018.22;5078391;28;45503;-55
2023/01/25 11:23:23;;;;;;;;;35.00;27.75;;;;;3.60;70.58;103018.31;5078499;28;45406;-57